Strona główna
METAR-TAF:

METAR-TAF

Lotnisko :

Port lotniczy Olsztyn-Mazury

Olsztyn, Polska

Szerokość geograficzna: 53-28-55N, Długość geograficzna: 20-56-16E, wysokość: 141 m

Aktualna obserwacja pogody

Raport powstał 26 minut temu, godzina 07:00 UTC
Wiatr 6 kt od północ, zmienny między północny zachód i północny wschód
Temperatura 17°C
Wilgotność 72%
Ciśnienie 1022 hPa
Widzialność 10 km lub więcej
Brak chmur poniżej 1500 m i brak chmur cumulonimbus

METAR: EPSY 230700Z 01006KT 320V040 CAVOK 17/12 Q1022

czas: 09:26 (07:26 UTC)

Prognoza

Raport powstał 1 godzina i 56 minut temu, godzina 05:30 UTC
Prognoza ważna od 23 godzina 06 UTC do 23 godzina 15 UTC
Wiatr 7 kt od północ
Widzialność 10 km lub więcej
Brak chmur poniżej 1500 m i brak chmur cumulonimbus

TAF: EPSY 230530Z 2306/2315 01007KT CAVOK

Obserwacja i prognoza pogody dla ponad 4000 lotnisk (raport METAR i TAF).

Dostępne stacje oznaczono żółtymi i czerwonymi punktami na mapie.

Najedź kursorem aby zobaczyć nazwę stacji.

Kliknij aby zobaczyć obserwacje i prognozy pogody.

Aby zmienić mapę: kliknij na zielony przycisk z czarnym krzyżykiem, aby powiększyć; na zielony przycisk z myślnikiem, aby pomniejszyć; na zielone strzałki, aby przejść do map sąsiednich.


METAR-TAF: